Time;durP1;ratioP1;P1;durP2;ratioP2;P2;SDS_P1;SDS_P2;PMS_P1;PMS_P2;Temp;Humidity;BMP_temperature;BMP_pressure;BME280_temperature;BME280_humidity;BME280_pressure;Samples;Min_cycle;Max_cycle;Signal;HPM_P1;HPM_P2
2021/11/05 00:01:03;;;;;;;8.45;3.50;;;7.90;99.90;;;;;;5102504;28;20126;-78
2021/11/05 00:03:31;;;;;;;10.93;3.72;;;7.90;99.90;;;;;;5082071;28;20054;-84
2021/11/05 00:05:57;;;;;;;14.13;5.05;;;7.90;99.90;;;;;;5084519;28;20088;-78
2021/11/05 00:08:25;;;;;;;9.73;3.35;;;8.00;99.90;;;;;;5088339;28;20040;-84
2021/11/05 00:10:51;;;;;;;9.70;3.90;;;8.00;99.90;;;;;;5047723;28;20052;-85
2021/11/05 00:13:17;;;;;;;10.07;3.10;;;8.00;99.90;;;;;;5081869;28;20047;-84
2021/11/05 00:15:43;;;;;;;7.72;3.17;;;9.10;99.90;;;;;;5101886;28;20436;-83
2021/11/05 00:18:09;;;;;;;7.25;3.00;;;8.00;99.90;;;;;;5061796;28;20384;-84
2021/11/05 00:20:35;;;;;;;6.70;3.22;;;8.00;99.90;;;;;;5078171;28;20115;-84
2021/11/05 00:23:13;;;;;;;9.32;3.25;;;8.00;99.90;;;;;;5059913;28;20124;-84
2021/11/05 00:25:39;;;;;;;7.40;2.83;;;8.10;99.90;;;;;;5078245;28;20043;-84
2021/11/05 00:28:05;;;;;;;8.90;3.63;;;8.50;99.90;;;;;;5078296;28;20067;-84
2021/11/05 00:30:31;;;;;;;9.63;3.42;;;8.10;99.90;;;;;;5082219;28;20686;-84
2021/11/05 00:32:57;;;;;;;5.75;3.22;;;8.30;99.90;;;;;;5090632;28;20035;-84
2021/11/05 00:35:26;;;;;;;9.73;2.80;;;8.00;99.90;;;;;;5063115;28;20138;-84
2021/11/05 00:37:52;;;;;;;6.20;2.83;;;8.00;99.90;;;;;;5089018;28;20122;-84
2021/11/05 00:40:19;;;;;;;8.70;3.17;;;8.00;99.90;;;;;;5080819;28;20048;-84
2021/11/05 00:42:45;;;;;;;10.10;2.78;;;8.10;99.90;;;;;;5087122;28;20417;-84
2021/11/05 00:45:12;;;;;;;9.07;2.90;;;8.20;99.90;;;;;;5100935;28;20036;-84
2021/11/05 00:47:42;;;;;;;10.77;2.97;;;8.00;99.90;;;;;;5044848;28;20063;-84
2021/11/05 00:50:08;;;;;;;7.82;2.60;;;9.10;99.90;;;;;;5060952;28;20553;-84
2021/11/05 00:52:35;;;;;;;6.82;2.63;;;7.20;99.90;;;;;;5077802;28;20039;-84
2021/11/05 00:55:03;;;;;;;6.72;2.63;;;8.60;99.90;;;;;;5096046;28;20085;-84
2021/11/05 00:57:29;;;;;;;4.05;2.28;;;7.90;99.90;;;;;;5095827;28;20074;-84
2021/11/05 00:59:55;;;;;;;4.60;2.25;;;8.00;99.90;;;;;;5060843;28;20074;-84
2021/11/05 01:02:21;;;;;;;6.53;2.50;;;7.90;99.90;;;;;;5060695;28;20128;-84
2021/11/05 01:04:50;;;;;;;9.70;2.28;;;7.20;99.90;;;;;;5103993;28;20047;-84
2021/11/05 01:07:16;;;;;;;7.07;2.40;;;7.90;99.90;;;;;;5082634;28;20425;-84
2021/11/05 01:09:41;;;;;;;4.43;2.53;;;8.00;99.90;;;;;;5095456;28;20111;-84
2021/11/05 01:12:08;;;;;;;7.22;2.60;;;8.00;99.90;;;;;;5095495;28;20048;-84
2021/11/05 01:14:37;;;;;;;8.05;2.90;;;7.90;99.90;;;;;;5091081;28;20063;-84
2021/11/05 01:17:06;;;;;;;7.60;2.70;;;7.70;99.90;;;;;;5095302;28;20392;-84
2021/11/05 01:19:34;;;;;;;8.05;2.65;;;8.30;99.90;;;;;;5060575;28;20083;-78
2021/11/05 01:22:00;;;;;;;10.95;3.65;;;8.50;99.90;;;;;;5105292;28;20043;-78
2021/11/05 01:24:26;;;;;;;9.30;3.03;;;7.90;99.90;;;;;;5084946;28;20036;-78
2021/11/05 01:26:55;;;;;;;7.25;2.70;;;8.00;99.90;;;;;;5068476;28;20077;-77
2021/11/05 01:29:21;;;;;;;6.75;2.50;;;7.80;99.90;;;;;;5115309;28;20040;-78
2021/11/05 01:31:47;;;;;;;9.63;2.80;;;7.80;99.90;;;;;;5079963;28;20039;-79
2021/11/05 01:34:12;;;;;;;6.32;3.03;;;7.80;99.90;;;;;;5060071;28;20044;-78
2021/11/05 01:36:38;;;;;;;12.45;2.75;;;7.80;99.90;;;;;;5074746;28;20040;-78
2021/11/05 01:39:04;;;;;;;11.32;2.80;;;7.90;99.90;;;;;;5097093;28;20426;-78
2021/11/05 01:41:40;;;;;;;6.05;2.60;;;8.70;99.90;;;;;;5080113;28;20096;-79
2021/11/05 01:44:08;;;;;;;7.35;2.70;;;7.80;99.90;;;;;;5094666;28;20093;-79
2021/11/05 01:46:43;;;;;;;11.43;2.83;;;7.70;99.90;;;;;;5094640;28;20184;-78
2021/11/05 01:49:10;;;;;;;4.78;2.53;;;8.00;99.90;;;;;;5076523;28;20093;-78
2021/11/05 01:51:38;;;;;;;10.48;2.53;;;7.70;99.90;;;;;;5076372;28;20048;-78
2021/11/05 01:54:08;;;;;;;7.50;3.30;;;7.70;99.90;;;;;;5076505;28;20039;-78
2021/11/05 01:56:37;;;;;;;11.07;3.25;;;7.70;99.90;;;;;;5059744;28;20042;-78
2021/11/05 01:59:04;;;;;;;10.02;3.10;;;7.70;99.90;;;;;;5093523;28;20574;-78
2021/11/05 02:01:30;;;;;;;9.07;3.33;;;7.60;99.90;;;;;;5105434;28;20434;-77
2021/11/05 02:03:55;;;;;;;8.52;3.25;;;7.70;99.90;;;;;;5094244;28;20051;-78
2021/11/05 02:06:23;;;;;;;7.82;3.13;;;7.60;99.90;;;;;;5101842;28;20027;-78
2021/11/05 02:08:53;;;;;;;7.80;3.05;;;7.60;99.90;;;;;;5082790;28;20047;-78
2021/11/05 02:11:21;;;;;;;6.03;3.55;;;7.60;99.90;;;;;;5100321;28;20555;-78
2021/11/05 02:13:47;;;;;;;7.50;3.33;;;7.60;99.90;;;;;;5096068;28;20081;-78
2021/11/05 02:16:14;;;;;;;5.45;2.60;;;7.60;99.90;;;;;;5061621;28;20048;-77
2021/11/05 02:18:44;;;;;;;11.50;3.33;;;7.60;99.90;;;;;;5094297;28;20369;-77
2021/11/05 02:21:15;;;;;;;8.75;3.22;;;7.60;99.90;;;;;;5055916;28;20484;-78
2021/11/05 02:23:42;;;;;;;6.93;2.95;;;7.60;99.90;;;;;;5039232;28;20074;-78
2021/11/05 02:26:08;;;;;;;8.38;3.10;;;8.10;99.90;;;;;;5056801;28;20059;-78
2021/11/05 02:28:39;;;;;;;7.53;2.97;;;7.60;99.90;;;;;;5085560;28;20576;-78
2021/11/05 02:31:06;;;;;;;9.00;2.88;;;7.90;99.90;;;;;;5071383;28;20041;-79
2021/11/05 02:33:33;;;;;;;5.90;2.90;;;7.50;99.90;;;;;;5037249;28;20074;-78
2021/11/05 02:35:59;;;;;;;9.60;3.13;;;7.50;99.90;;;;;;5062928;28;20078;-78
2021/11/05 02:38:29;;;;;;;8.35;3.08;;;7.50;99.90;;;;;;5067523;28;20503;-78
2021/11/05 02:40:58;;;;;;;8.02;2.80;;;7.50;99.90;;;;;;5075235;28;20043;-78
2021/11/05 02:43:24;;;;;;;10.20;3.00;;;7.50;99.90;;;;;;5093727;28;20118;-79
2021/11/05 02:45:52;;;;;;;10.65;3.22;;;7.50;99.90;;;;;;5093124;28;20130;-78
2021/11/05 02:48:18;;;;;;;10.98;3.78;;;7.50;99.90;;;;;;5058513;28;20132;-78
2021/11/05 02:50:46;;;;;;;9.50;3.20;;;7.40;99.90;;;;;;5093231;28;20126;-78
2021/11/05 02:53:14;;;;;;;12.63;2.65;;;8.10;99.90;;;;;;5067936;28;20127;-78
2021/11/05 02:55:40;;;;;;;10.85;2.80;;;7.50;99.90;;;;;;5055361;28;20044;-78
2021/11/05 02:58:06;;;;;;;7.75;2.75;;;7.50;99.90;;;;;;5074089;28;20051;-74
2021/11/05 03:00:32;;;;;;;8.75;2.30;;;7.50;99.90;;;;;;5093435;28;20051;-74
2021/11/05 03:03:01;;;;;;;9.93;3.08;;;7.50;99.90;;;;;;5057683;28;20504;-75
2021/11/05 03:05:30;;;;;;;10.00;2.38;;;7.50;99.90;;;;;;5047416;28;20083;-75
2021/11/05 03:07:56;;;;;;;9.90;2.50;;;7.50;99.90;;;;;;5041764;28;20039;-75
2021/11/05 03:10:22;;;;;;;9.98;2.50;;;7.50;99.90;;;;;;5074658;28;20059;-75
2021/11/05 03:12:52;;;;;;;11.85;2.83;;;7.50;99.90;;;;;;5093243;28;20472;-75
2021/11/05 03:15:18;;;;;;;7.60;2.50;;;7.50;99.90;;;;;;5074759;28;20054;-75
2021/11/05 03:17:44;;;;;;;7.60;2.28;;;7.50;99.90;;;;;;5062334;28;20120;-75
2021/11/05 03:20:12;;;;;;;11.18;2.50;;;7.50;99.90;;;;;;5072893;28;20036;-75
2021/11/05 03:22:44;;;;;;;12.23;2.60;;;8.00;99.90;;;;;;5063451;28;20076;-75
2021/11/05 03:25:11;;;;;;;5.70;2.47;;;7.50;99.90;;;;;;5054889;28;20043;-77
2021/11/05 03:27:37;;;;;;;7.00;2.70;;;7.50;99.90;;;;;;5074817;28;20040;-77
2021/11/05 03:30:10;;;;;;;8.40;2.50;;;7.50;99.90;;;;;;5092862;28;20051;-77
2021/11/05 03:32:37;;;;;;;13.55;2.40;;;7.60;99.90;;;;;;5093258;28;20044;-78
2021/11/05 03:35:08;;;;;;;5.88;2.53;;;7.60;99.90;;;;;;5060454;28;20412;-78
2021/11/05 03:37:35;;;;;;;8.98;2.42;;;7.60;99.90;;;;;;5074721;28;20121;-78
2021/11/05 03:40:07;;;;;;;8.75;2.78;;;7.70;99.90;;;;;;5061596;28;20067;-78
2021/11/05 03:42:33;;;;;;;11.18;2.55;;;7.70;99.90;;;;;;5054628;28;20047;-78
2021/11/05 03:44:59;;;;;;;7.25;2.22;;;7.80;99.90;;;;;;5066456;28;20035;-78
2021/11/05 03:47:25;;;;;;;8.77;2.40;;;7.70;99.90;;;;;;5092596;28;20039;-78
2021/11/05 03:49:51;;;;;;;8.98;2.55;;;7.70;99.90;;;;;;5074714;28;20076;-78
2021/11/05 03:52:17;;;;;;;5.75;2.47;;;7.80;99.90;;;;;;5074238;28;20044;-78
2021/11/05 03:54:43;;;;;;;9.25;2.22;;;8.60;99.90;;;;;;5074685;28;20040;-78
2021/11/05 03:57:09;;;;;;;13.10;2.30;;;7.80;99.90;;;;;;5074651;28;20519;-77
2021/11/05 03:59:38;;;;;;;10.02;2.30;;;7.80;99.90;;;;;;5072438;28;20041;-77
2021/11/05 04:02:04;;;;;;;14.13;2.58;;;8.70;99.90;;;;;;5050359;28;20396;-77
2021/11/05 04:04:29;;;;;;;11.95;1.80;;;7.90;99.90;;;;;;5078142;28;20036;-77
2021/11/05 04:06:57;;;;;;;10.50;2.10;;;8.60;99.90;;;;;;5074162;28;20055;-77
2021/11/05 04:09:23;;;;;;;12.52;2.58;;;7.90;99.90;;;;;;5057456;28;20048;-77
2021/11/05 04:11:48;;;;;;;8.93;2.15;;;8.20;99.90;;;;;;5065854;28;20055;-77
2021/11/05 04:14:14;;;;;;;6.97;1.95;;;8.10;99.90;;;;;;5051863;28;20039;-77
2021/11/05 04:16:43;;;;;;;9.80;2.08;;;8.10;99.90;;;;;;5092539;28;20040;-77
2021/11/05 04:19:09;;;;;;;13.27;2.58;;;8.00;99.90;;;;;;5060027;28;20123;-78
2021/11/05 04:21:34;;;;;;;6.07;2.03;;;8.00;99.90;;;;;;5077072;28;20170;-78
2021/11/05 04:24:01;;;;;;;6.47;2.10;;;8.30;99.90;;;;;;5057569;28;20067;-78
2021/11/05 04:26:28;;;;;;;13.23;2.30;;;8.70;99.90;;;;;;5054157;28;20048;-78
2021/11/05 04:28:54;;;;;;;6.55;1.77;;;8.30;99.90;;;;;;5081610;28;20383;-78
2021/11/05 04:31:20;;;;;;;13.18;2.00;;;7.90;99.90;;;;;;5092141;28;20111;-78
2021/11/05 04:33:46;;;;;;;7.82;1.98;;;8.20;99.90;;;;;;5084791;28;20484;-77
2021/11/05 04:36:12;;;;;;;8.00;1.80;;;7.90;99.90;;;;;;5038277;28;20216;-78
2021/11/05 04:38:40;;;;;;;5.55;1.80;;;7.90;99.90;;;;;;5091424;28;20050;-78
2021/11/05 04:41:09;;;;;;;6.72;1.80;;;7.90;99.90;;;;;;5061875;28;20040;-78
2021/11/05 04:43:34;;;;;;;7.78;2.00;;;7.90;99.90;;;;;;5060708;28;20036;-78
2021/11/05 04:46:00;;;;;;;6.18;1.63;;;8.00;99.90;;;;;;5095840;28;20040;-78
2021/11/05 04:48:26;;;;;;;7.20;1.73;;;7.80;99.90;;;;;;5095899;28;20040;-77
2021/11/05 04:50:52;;;;;;;6.50;1.70;;;7.80;99.90;;;;;;5077572;28;20338;-77
2021/11/05 04:53:17;;;;;;;11.32;1.92;;;7.80;99.90;;;;;;5077706;28;20040;-77
2021/11/05 04:55:43;;;;;;;6.43;1.50;;;7.80;99.90;;;;;;5063511;28;20040;-77
2021/11/05 04:58:09;;;;;;;11.13;2.05;;;7.80;99.90;;;;;;5095685;28;20043;-77
2021/11/05 05:00:35;;;;;;;6.72;1.80;;;7.80;99.90;;;;;;5046688;28;20041;-77
2021/11/05 05:03:01;;;;;;;11.50;1.80;;;7.80;99.90;;;;;;5060795;28;20102;-77
2021/11/05 05:05:32;;;;;;;8.80;1.67;;;7.80;99.90;;;;;;5077322;28;20032;-77
2021/11/05 05:07:58;;;;;;;9.50;1.88;;;7.80;99.90;;;;;;5095539;28;20491;-77
2021/11/05 05:10:25;;;;;;;10.38;1.80;;;7.80;99.90;;;;;;5095439;28;20160;-77
2021/11/05 05:12:52;;;;;;;10.40;1.73;;;7.80;99.90;;;;;;5073876;28;20032;-77
2021/11/05 05:15:18;;;;;;;7.75;1.95;;;7.80;99.90;;;;;;5049509;28;20133;-78
2021/11/05 05:17:47;;;;;;;10.60;1.70;;;7.90;99.90;;;;;;5077225;28;20079;-78
2021/11/05 05:20:18;;;;;;;8.93;2.10;;;7.80;99.90;;;;;;5077057;28;20044;-78
2021/11/05 05:22:44;;;;;;;8.48;1.88;;;7.90;99.90;;;;;;5062075;28;20041;-78
2021/11/05 05:25:12;;;;;;;7.47;1.95;;;7.90;99.90;;;;;;5074645;28;20040;-78
2021/11/05 05:27:39;;;;;;;10.70;1.70;;;8.40;99.90;;;;;;5087701;28;20043;-77
2021/11/05 05:30:08;;;;;;;6.90;1.48;;;8.50;99.90;;;;;;5077030;28;20036;-77
2021/11/05 05:32:45;;;;;;;9.40;1.90;;;7.90;99.90;;;;;;5077122;28;20040;-78
2021/11/05 05:35:12;;;;;;;6.32;1.65;;;7.90;99.90;;;;;;5076370;28;20384;-78
2021/11/05 05:37:38;;;;;;;9.40;1.80;;;7.90;99.90;;;;;;5077073;28;20078;-77
2021/11/05 05:40:07;;;;;;;10.65;1.60;;;7.90;99.90;;;;;;5077044;28;20032;-77
2021/11/05 05:42:33;;;;;;;6.90;1.50;;;7.90;99.90;;;;;;5076550;28;20043;-78
2021/11/05 05:45:02;;;;;;;5.82;1.70;;;7.90;99.90;;;;;;5039878;28;20427;-78
2021/11/05 05:47:27;;;;;;;6.97;1.45;;;7.90;99.90;;;;;;5073438;28;20119;-78
2021/11/05 05:49:53;;;;;;;9.95;1.83;;;7.90;99.90;;;;;;5059911;28;20127;-77
2021/11/05 05:52:19;;;;;;;8.57;1.83;;;7.90;99.90;;;;;;5057215;28;20044;-77
2021/11/05 05:54:45;;;;;;;10.30;2.13;;;7.90;99.90;;;;;;5031327;28;20081;-77
2021/11/05 05:57:10;;;;;;;7.53;1.55;;;8.40;99.90;;;;;;5059870;28;20092;-77
2021/11/05 05:59:36;;;;;;;11.15;1.85;;;8.00;99.90;;;;;;5070238;28;20041;-77
2021/11/05 06:02:02;;;;;;;8.48;1.63;;;8.00;99.90;;;;;;5051718;28;20109;-78
2021/11/05 06:04:28;;;;;;;9.57;1.70;;;8.00;99.90;;;;;;5057984;28;20067;-78
2021/11/05 06:06:54;;;;;;;7.43;1.90;;;8.00;99.90;;;;;;5066419;28;20063;-78
2021/11/05 06:09:21;;;;;;;7.97;1.80;;;8.10;99.90;;;;;;5062076;28;20414;-78
2021/11/05 06:11:46;;;;;;;7.95;1.83;;;8.50;99.90;;;;;;5085735;28;20048;-78
2021/11/05 06:14:12;;;;;;;9.73;1.92;;;8.00;99.90;;;;;;5088286;28;20116;-78
2021/11/05 06:16:40;;;;;;;13.48;2.30;;;8.10;99.90;;;;;;5076075;28;20115;-78
2021/11/05 06:19:06;;;;;;;7.40;1.80;;;8.50;99.90;;;;;;5058892;28;20072;-78
2021/11/05 06:21:35;;;;;;;9.95;2.60;;;8.10;99.90;;;;;;5093970;28;20083;-78
2021/11/05 06:24:01;;;;;;;10.00;2.65;;;8.10;99.90;;;;;;5076051;28;20048;-78
2021/11/05 06:26:26;;;;;;;9.70;2.17;;;8.50;99.90;;;;;;5079513;28;20032;-78
2021/11/05 06:28:52;;;;;;;9.15;2.10;;;8.20;99.90;;;;;;5058937;28;20052;-78
2021/11/05 06:31:18;;;;;;;7.88;2.03;;;8.60;99.90;;;;;;5045037;28;20040;-78
2021/11/05 06:33:45;;;;;;;12.75;2.15;;;8.30;99.90;;;;;;5058981;28;20046;-78
2021/11/05 06:36:11;;;;;;;9.38;2.05;;;8.20;99.90;;;;;;5093561;28;20062;-78
2021/11/05 06:38:36;;;;;;;10.15;2.13;;;8.90;99.90;;;;;;5061246;28;20037;-78
2021/11/05 06:41:06;;;;;;;9.90;1.92;;;8.20;99.90;;;;;;5059030;28;20055;-78
2021/11/05 06:43:32;;;;;;;9.10;2.70;;;8.20;99.90;;;;;;5093925;28;20040;-78
2021/11/05 06:45:58;;;;;;;4.90;1.73;;;8.30;99.90;;;;;;5059200;28;20039;-78
2021/11/05 06:48:24;;;;;;;6.03;2.05;;;8.20;99.90;;;;;;5058305;28;20048;-75
2021/11/05 06:50:55;;;;;;;6.53;1.98;;;8.20;99.90;;;;;;5054956;28;20045;-75
2021/11/05 06:53:24;;;;;;;5.68;2.00;;;8.20;99.90;;;;;;5039716;28;20036;-76
2021/11/05 06:55:49;;;;;;;7.90;2.35;;;8.30;99.90;;;;;;5090254;28;20111;-75
2021/11/05 06:58:15;;;;;;;11.57;2.33;;;8.10;99.90;;;;;;5054943;28;20115;-76
2021/11/05 07:00:44;;;;;;;6.85;1.95;;;8.10;99.90;;;;;;5087053;28;20079;-75
2021/11/05 07:03:10;;;;;;;8.68;2.08;;;8.10;99.90;;;;;;5062741;28;20434;-76
2021/11/05 07:05:36;;;;;;;10.43;2.03;;;8.90;99.90;;;;;;5093068;28;20115;-76
2021/11/05 07:08:02;;;;;;;8.60;2.40;;;8.10;99.90;;;;;;5069148;28;20074;-76
2021/11/05 07:10:28;;;;;;;10.50;2.60;;;8.10;99.90;;;;;;5084222;28;20487;-75
2021/11/05 07:12:54;;;;;;;9.45;2.58;;;8.10;99.90;;;;;;5057842;28;20085;-75
2021/11/05 07:15:20;;;;;;;11.82;2.22;;;8.90;99.90;;;;;;5038025;28;20136;-75
2021/11/05 07:17:49;;;;;;;5.80;2.40;;;8.20;99.90;;;;;;5088345;28;20124;-75
2021/11/05 07:20:15;;;;;;;5.93;2.40;;;8.10;99.90;;;;;;5092908;28;20036;-75
2021/11/05 07:22:44;;;;;;;5.38;1.77;;;8.10;99.90;;;;;;5043732;28;20045;-75
2021/11/05 07:25:39;;;;;;;8.18;2.53;;;8.20;99.90;;;;;;5057814;28;20491;-76
2021/11/05 07:28:39;;;;;;;6.88;2.20;;;8.10;99.90;;;;;;5043809;28;20044;-76
2021/11/05 07:31:08;;;;;;;8.27;2.50;;;8.20;99.90;;;;;;5069039;28;20164;-75
2021/11/05 07:33:42;;;;;;;10.32;2.40;;;8.20;99.90;;;;;;5059747;28;20067;-75
2021/11/05 07:36:29;;;;;;;9.40;2.25;;;8.20;99.90;;;;;;5041796;28;20039;-76
2021/11/05 07:39:02;;;;;;;7.95;1.98;;;8.30;99.90;;;;;;5057646;28;20048;-75
2021/11/05 07:41:43;;;;;;;9.88;2.35;;;8.50;99.90;;;;;;5092452;28;20047;-76
2021/11/05 07:44:23;;;;;;;7.47;1.80;;;7.90;99.90;;;;;;5057453;28;20044;-76
2021/11/05 07:47:08;;;;;;;8.15;2.45;;;8.50;99.90;;;;;;5061882;28;20835;-76
2021/11/05 07:50:23;;;;;;;11.15;2.70;;;8.40;99.90;;;;;;5057219;28;20044;-76
2021/11/05 07:52:54;;;;;;;6.47;2.00;;;9.00;99.90;;;;;;5078666;28;20040;-76
2021/11/05 07:55:25;;;;;;;6.57;2.10;;;9.40;99.90;;;;;;5056912;28;20093;-76
2021/11/05 07:57:59;;;;;;;12.88;3.00;;;9.50;99.90;;;;;;5092237;28;20434;-76
2021/11/05 08:00:45;;;;;;;6.50;2.10;;;8.60;99.90;;;;;;5074419;28;20069;-77
2021/11/05 08:03:24;;;;;;;5.93;1.80;;;8.70;99.90;;;;;;5034853;28;20055;-75
2021/11/05 08:06:04;;;;;;;7.18;1.85;;;8.70;99.90;;;;;;5092256;28;20080;-74
2021/11/05 08:11:46;;;;;;;9.52;1.98;;;8.70;99.90;;;;;;5053527;28;20041;-78
2021/11/05 08:14:12;;;;;;;6.20;1.60;;;8.80;99.90;;;;;;5096108;28;20446;-79
2021/11/05 08:16:38;;;;;;;8.55;1.75;;;9.40;99.90;;;;;;5089825;28;20044;-78
2021/11/05 08:19:03;;;;;;;12.95;3.10;;;8.80;99.90;;;;;;5053615;28;20036;-78
2021/11/05 08:21:32;;;;;;;12.38;2.40;;;8.90;99.90;;;;;;5096217;28;20040;-79
2021/11/05 08:23:58;;;;;;;7.65;2.20;;;8.90;99.90;;;;;;5061442;28;20044;-79
2021/11/05 08:26:28;;;;;;;10.38;2.13;;;9.20;99.90;;;;;;5081926;28;20044;-78
2021/11/05 08:28:59;;;;;;;10.18;1.92;;;8.90;99.90;;;;;;5096416;28;20035;-78
2021/11/05 08:31:26;;;;;;;8.15;1.77;;;9.40;99.90;;;;;;5061497;28;20105;-79
2021/11/05 08:33:52;;;;;;;6.38;2.00;;;9.00;99.90;;;;;;5096291;28;20373;-79
2021/11/05 08:36:21;;;;;;;10.90;2.33;;;9.00;99.90;;;;;;5057334;28;20143;-78
2021/11/05 08:38:46;;;;;;;10.07;2.05;;;9.00;99.90;;;;;;5081623;28;20102;-79
2021/11/05 08:41:17;;;;;;;6.28;2.00;;;9.00;99.90;;;;;;5077944;28;20048;-79
2021/11/05 08:43:48;;;;;;;7.40;2.10;;;9.10;99.90;;;;;;5095363;28;20083;-79
2021/11/05 08:46:17;;;;;;;10.45;2.40;;;9.20;99.90;;;;;;5065864;28;20044;-79
2021/11/05 08:49:02;;;;;;;6.18;1.85;;;9.20;99.90;;;;;;5063535;28;20045;-78
2021/11/05 08:51:30;;;;;;;10.25;2.10;;;9.10;99.90;;;;;;5060978;28;20169;-79
2021/11/05 08:53:56;;;;;;;13.85;1.85;;;9.10;99.90;;;;;;5060624;28;20043;-79
2021/11/05 08:56:22;;;;;;;11.20;1.80;;;9.10;99.90;;;;;;5088439;28;20028;-79
2021/11/05 08:58:48;;;;;;;10.52;2.35;;;9.10;99.90;;;;;;5058020;28;20041;-78
2021/11/05 09:01:15;;;;;;;8.70;2.03;;;9.70;99.90;;;;;;5043595;28;20044;-78
2021/11/05 09:03:43;;;;;;;5.78;1.90;;;9.20;99.90;;;;;;5077407;28;20055;-79
2021/11/05 09:06:09;;;;;;;11.52;2.40;;;9.10;99.90;;;;;;5077315;28;20036;-79
2021/11/05 09:08:36;;;;;;;9.43;2.22;;;9.20;99.90;;;;;;5085226;28;20033;-79
2021/11/05 09:11:04;;;;;;;8.48;2.38;;;9.40;99.90;;;;;;5089130;28;20097;-79
2021/11/05 09:13:32;;;;;;;11.40;2.78;;;9.30;99.90;;;;;;5049359;28;20028;-79
2021/11/05 09:15:58;;;;;;;9.95;2.80;;;9.70;99.90;;;;;;5095024;28;20506;-79
2021/11/05 09:18:24;;;;;;;10.30;3.05;;;9.20;99.90;;;;;;5040723;28;20067;-79
2021/11/05 09:20:50;;;;;;;16.58;3.40;;;9.80;99.90;;;;;;5088360;28;20392;-79
2021/11/05 09:23:16;;;;;;;13.95;3.70;;;9.30;99.90;;;;;;5075276;28;20536;-79
2021/11/05 09:25:44;;;;;;;8.68;3.33;;;9.30;99.90;;;;;;5078846;28;20080;-78
2021/11/05 09:28:12;;;;;;;10.65;3.15;;;9.30;99.90;;;;;;5080534;28;20032;-74
2021/11/05 09:30:38;;;;;;;15.95;3.25;;;9.40;99.90;;;;;;5050647;28;20128;-74
2021/11/05 09:33:04;;;;;;;13.75;3.00;;;9.40;99.90;;;;;;5036803;28;20119;-74
2021/11/05 09:35:30;;;;;;;8.93;2.70;;;9.50;99.90;;;;;;5094612;28;20115;-74
2021/11/05 09:38:02;;;;;;;10.10;1.92;;;9.50;99.90;;;;;;5094943;28;20484;-78
2021/11/05 09:40:28;;;;;;;10.88;2.40;;;9.60;99.90;;;;;;5060051;28;20039;-78
2021/11/05 09:42:55;;;;;;;14.20;2.13;;;9.60;99.90;;;;;;5043384;28;20044;-79
2021/11/05 09:45:24;;;;;;;8.25;1.73;;;9.70;99.90;;;;;;5075821;28;20078;-79
2021/11/05 09:47:50;;;;;;;7.47;1.60;;;9.70;99.90;;;;;;5082222;28;20040;-79
2021/11/05 09:50:21;;;;;;;9.18;1.70;;;9.80;99.90;;;;;;5063297;28;20072;-79
2021/11/05 09:52:48;;;;;;;6.03;1.60;;;9.80;99.90;;;;;;5080448;28;20044;-74
2021/11/05 09:55:15;;;;;;;11.25;1.80;;;9.90;99.90;;;;;;5076827;28;20086;-74
2021/11/05 09:57:41;;;;;;;10.93;1.73;;;10.00;99.90;;;;;;5094387;28;20114;-74
2021/11/05 10:00:10;;;;;;;8.20;1.52;;;10.00;99.90;;;;;;5094540;28;20111;-74
2021/11/05 10:02:36;;;;;;;11.43;1.67;;;10.10;99.90;;;;;;5076121;28;20074;-74
2021/11/05 10:05:05;;;;;;;4.57;1.40;;;10.20;99.90;;;;;;5076470;28;20433;-74
2021/11/05 10:07:44;;;;;;;3.30;1.13;;;10.30;99.90;;;;;;5076008;28;20122;-76
2021/11/05 10:10:09;;;;;;;8.10;1.20;;;10.40;99.90;;;;;;5050665;28;20071;-76
2021/11/05 10:12:35;;;;;;;9.68;1.10;;;10.50;99.90;;;;;;5069801;28;20037;-77
2021/11/05 10:15:05;;;;;;;6.70;1.10;;;10.60;99.90;;;;;;5046026;28;20059;-77
2021/11/05 10:17:40;;;;;;;4.82;1.17;;;10.60;99.90;;;;;;5062365;28;20369;-76
2021/11/05 10:20:09;;;;;;;7.50;1.10;;;10.60;99.90;;;;;;5043085;28;20036;-76
2021/11/05 10:22:53;;;;;;;5.57;1.00;;;10.70;99.90;;;;;;5087131;28;20451;-76
2021/11/05 10:25:37;;;;;;;6.88;1.20;;;10.80;99.90;;;;;;5075610;28;20492;-76
2021/11/05 10:28:24;;;;;;;2.75;0.80;;;10.80;99.90;;;;;;5075161;28;20051;-76
2021/11/05 10:30:52;;;;;;;3.75;0.70;;;10.80;99.90;;;;;;5065050;28;20464;-76
2021/11/05 10:33:24;;;;;;;6.28;1.00;;;10.90;99.90;;;;;;5072705;28;20043;-76
2021/11/05 10:35:53;;;;;;;3.50;0.70;;;10.90;99.90;;;;;;5075544;28;20113;-76
2021/11/05 10:38:20;;;;;;;2.95;0.60;;;10.90;99.90;;;;;;5046153;28;20384;-76
2021/11/05 10:40:51;;;;;;;4.93;0.80;;;10.80;99.90;;;;;;5057544;28;20437;-76
2021/11/05 10:43:37;;;;;;;2.47;0.63;;;10.90;99.90;;;;;;5082128;28;20388;-78
2021/11/05 10:46:05;;;;;;;4.82;1.10;;;10.80;99.90;;;;;;5075501;28;20365;-78
2021/11/05 10:48:35;;;;;;;5.47;1.42;;;10.70;99.90;;;;;;5068170;28;20110;-78
2021/11/05 10:51:11;;;;;;;5.63;1.17;;;10.70;99.90;;;;;;5069607;28;20125;-79
2021/11/05 10:53:42;;;;;;;9.18;1.40;;;10.80;99.90;;;;;;5038304;28;20116;-79
2021/11/05 10:56:24;;;;;;;5.88;1.40;;;10.80;99.90;;;;;;5074602;28;20032;-79
2021/11/05 10:58:49;;;;;;;4.93;1.15;;;10.70;99.90;;;;;;5079521;28;20047;-78
2021/11/05 11:01:18;;;;;;;7.72;0.98;;;10.70;99.90;;;;;;5092956;28;20380;-78
2021/11/05 11:03:56;;;;;;;9.02;1.48;;;10.80;99.90;;;;;;5058007;28;20385;-78
2021/11/05 11:06:31;;;;;;;7.22;1.20;;;10.80;99.90;;;;;;5075033;28;20040;-78
2021/11/05 11:09:00;;;;;;;6.03;0.85;;;10.90;99.90;;;;;;5057878;28;20048;-78
2021/11/05 11:11:30;;;;;;;5.65;1.63;;;10.90;99.90;;;;;;5074620;28;20033;-78
2021/11/05 11:14:02;;;;;;;4.05;1.10;;;11.00;99.90;;;;;;5075183;28;20048;-78
2021/11/05 11:16:31;;;;;;;5.78;0.98;;;11.20;99.90;;;;;;5073546;28;20131;-78
2021/11/05 11:18:58;;;;;;;5.28;0.80;;;11.10;99.90;;;;;;5065967;28;20036;-78
2021/11/05 11:21:30;;;;;;;5.68;0.82;;;11.10;99.90;;;;;;5075123;28;21649;-78
2021/11/05 11:24:00;;;;;;;6.63;0.98;;;11.10;99.90;;;;;;5083201;28;20040;-78
2021/11/05 11:26:27;;;;;;;2.65;0.80;;;11.20;99.90;;;;;;5074947;28;20036;-78
2021/11/05 11:28:56;;;;;;;3.90;0.80;;;11.20;99.90;;;;;;5058093;28;20046;-78
2021/11/05 11:31:23;;;;;;;7.20;1.35;;;11.40;99.90;;;;;;5078367;28;20045;-77
2021/11/05 11:33:50;;;;;;;5.82;1.25;;;11.30;99.90;;;;;;5074595;28;20483;-77
2021/11/05 11:36:19;;;;;;;4.40;1.00;;;11.30;99.90;;;;;;5064437;28;20089;-78
2021/11/05 11:38:53;;;;;;;5.43;1.15;;;11.30;99.90;;;;;;5053031;28;20052;-78
2021/11/05 11:41:21;;;;;;;5.78;0.98;;;11.30;99.90;;;;;;5072269;28;20040;-78
2021/11/05 11:43:48;;;;;;;6.38;0.82;;;11.20;99.90;;;;;;5070357;28;20040;-78
2021/11/05 11:46:14;;;;;;;4.82;0.77;;;11.20;99.90;;;;;;5056715;28;20048;-78
2021/11/05 11:48:43;;;;;;;4.22;1.23;;;11.20;99.90;;;;;;5092733;28;20044;-78
2021/11/05 11:51:41;;;;;;;4.10;0.70;;;11.20;99.90;;;;;;5071643;28;20049;-78
2021/11/05 11:54:13;;;;;;;4.90;1.30;;;11.20;99.90;;;;;;5071239;28;20044;-79
2021/11/05 11:56:42;;;;;;;6.57;1.38;;;11.10;99.90;;;;;;5064733;28;20071;-78
2021/11/05 11:59:11;;;;;;;4.55;0.90;;;11.10;99.90;;;;;;5088680;28;20040;-78
2021/11/05 12:01:40;;;;;;;7.65;1.10;;;11.00;99.90;;;;;;5073542;28;20056;-78
2021/11/05 12:04:14;;;;;;;4.95;0.90;;;11.00;99.90;;;;;;5042332;28;20056;-77
2021/11/05 12:07:00;;;;;;;3.35;1.27;;;10.90;99.90;;;;;;5057788;28;20504;-78
2021/11/05 12:09:41;;;;;;;5.15;0.75;;;10.90;99.90;;;;;;5057537;28;20036;-78
2021/11/05 12:12:22;;;;;;;4.38;0.80;;;10.80;99.90;;;;;;5063164;28;20052;-76
2021/11/05 12:17:45;;;;;;;3.58;0.88;;;10.80;99.90;;;;;;5074271;28;20405;-76
2021/11/05 12:20:33;;;;;;;9.77;1.40;;;10.80;99.90;;;;;;5053889;28;20480;-78
2021/11/05 12:23:11;;;;;;;7.25;1.50;;;10.80;99.90;;;;;;5053634;28;20040;-78
2021/11/05 12:25:57;;;;;;;5.10;1.48;;;10.80;99.90;;;;;;5063656;28;20040;-78
2021/11/05 12:28:25;;;;;;;9.65;1.98;;;10.80;99.90;;;;;;5037400;28;20055;-78
2021/11/05 12:30:53;;;;;;;9.25;2.58;;;10.80;99.90;;;;;;5083334;28;20132;-78
2021/11/05 12:33:32;;;;;;;11.32;2.30;;;10.80;99.90;;;;;;5043163;28;20066;-78
2021/11/05 12:36:01;;;;;;;8.68;2.08;;;10.70;99.90;;;;;;5084674;28;20116;-78
2021/11/05 12:38:27;;;;;;;9.55;2.33;;;10.80;99.90;;;;;;5071981;28;20072;-78
2021/11/05 12:41:04;;;;;;;10.77;1.67;;;10.80;99.90;;;;;;5074012;28;20048;-78
2021/11/05 12:43:47;;;;;;;;;;;;;;;;;;;;;
2021/11/05 12:46:26;;;;;;;14.88;2.47;;;10.80;99.90;;;;;;5080075;28;20160;-78
2021/11/05 12:48:57;;;;;;;16.35;4.55;;;11.10;99.90;;;;;;5055467;28;20119;-78
2021/11/05 12:51:34;;;;;;;13.30;2.78;;;10.90;99.90;;;;;;5037014;28;20055;-78
2021/11/05 12:54:04;;;;;;;10.93;1.52;;;11.30;99.90;;;;;;5087885;28;20593;-78
2021/11/05 12:56:36;;;;;;;15.90;2.80;;;10.90;99.90;;;;;;5065673;28;20111;-78
2021/11/05 12:59:07;;;;;;;8.20;2.03;;;10.90;99.90;;;;;;5072805;28;20445;-78
2021/11/05 13:01:33;;;;;;;13.63;1.90;;;10.90;99.90;;;;;;5087435;28;20048;-78
2021/11/05 13:04:10;;;;;;;10.60;2.88;;;10.90;99.90;;;;;;5042119;28;20036;-79
2021/11/05 13:06:52;;;;;;;6.90;1.80;;;10.90;99.90;;;;;;5077424;28;20070;-79
2021/11/05 13:09:30;;;;;;;8.95;1.67;;;10.90;99.90;;;;;;5077408;28;20111;-79